Time;durP1;ratioP1;P1;durP2;ratioP2;P2;SDS_P1;SDS_P2;PMS_P1;PMS_P2;Temp;Humidity;BMP_temperature;BMP_pressure;BME280_temperature;BME280_humidity;BME280_pressure;Samples;Min_cycle;Max_cycle;Signal;HPM_P1;HPM_P2
2022/05/10 00:00:21;;;;;;;33.42;3.70;;;;;;;23.35;53.64;100120.09;7308346;19;159063;-38
2022/05/10 00:02:50;;;;;;;16.10;1.80;;;;;;;23.38;53.68;100120.66;7311989;19;131376;-37
2022/05/10 00:05:24;;;;;;;25.75;3.42;;;;;;;23.39;53.49;100117.06;7309442;19;129743;-37
2022/05/10 00:07:49;;;;;;;40.63;3.80;;;;;;;23.37;53.48;100119.00;7307228;19;129511;-38
2022/05/10 00:10:15;;;;;;;35.17;3.97;;;;;;;23.37;53.60;100113.75;7312109;19;129345;-41
2022/05/10 00:12:40;;;;;;;40.80;4.43;;;;;;;23.39;53.42;100114.44;7307765;19;157362;-39
2022/05/10 00:15:06;;;;;;;18.85;2.13;;;;;;;23.37;53.40;100111.13;7308984;19;129734;-38
2022/05/10 00:17:38;;;;;;;29.43;3.23;;;;;;;23.37;53.97;100108.50;7307803;19;130214;-40
2022/05/10 00:20:09;;;;;;;24.05;2.72;;;;;;;23.33;53.53;100106.28;7308849;19;130238;-38
2022/05/10 00:22:35;;;;;;;21.40;2.65;;;;;;;23.36;52.93;100104.22;7304301;19;130337;-37
2022/05/10 00:25:01;;;;;;;35.33;4.27;;;;;;;23.36;53.26;100101.59;7304340;19;129549;-37
2022/05/10 00:27:26;;;;;;;21.47;2.40;;;;;;;23.37;53.11;100103.25;7310036;19;131125;-37
2022/05/10 00:29:51;;;;;;;29.77;3.63;;;;;;;23.36;53.15;100096.34;7308059;19;157916;-37
2022/05/10 00:32:17;;;;;;;54.10;6.67;;;;;;;23.34;53.71;100098.28;7302910;19;131335;-39
2022/05/10 00:34:43;;;;;;;26.70;3.05;;;;;;;23.38;53.52;100098.84;7303913;19;135548;-40
2022/05/10 00:37:10;;;;;;;39.85;4.45;;;;;;;23.37;53.04;100090.13;7308295;19;130317;-41
2022/05/10 00:39:37;;;;;;;43.40;5.45;;;;;;;23.27;53.07;100070.94;7306819;19;129474;-38
2022/05/10 00:42:12;;;;;;;18.13;2.20;;;;;;;23.39;53.45;100093.44;7306832;19;129400;-39
2022/05/10 00:44:47;;;;;;;63.50;7.50;;;;;;;23.37;53.90;100089.31;7299113;19;130956;-34
2022/05/10 00:47:29;;;;;;;22.42;2.45;;;;;;;23.38;53.65;100083.09;7299037;19;130555;-40
2022/05/10 00:50:17;;;;;;;34.00;3.88;;;;;;;23.38;53.60;100089.19;7308118;19;129546;-39
2022/05/10 00:52:51;;;;;;;;;;;;;;;23.45;53.28;100082.41;7307731;19;129536;-40
2022/05/10 00:55:23;;;;;;;18.70;2.67;;;;;;;23.36;53.47;100079.78;7307404;19;129801;-39
2022/05/10 00:57:54;;;;;;;32.20;3.50;;;;;;;23.35;53.94;100078.97;7304814;19;129124;-37
2022/05/10 01:00:23;;;;;;;20.55;2.33;;;;;;;23.34;53.54;100077.28;7308904;19;129406;-38
2022/05/10 01:03:03;;;;;;;30.85;3.40;;;;;;;23.35;53.59;100076.34;7307738;19;130143;-37
2022/05/10 01:05:47;;;;;;;70.43;7.90;;;;;;;23.37;53.99;100077.00;7301341;19;129240;-39
2022/05/10 01:08:24;;;;;;;19.67;2.17;;;;;;;23.36;53.93;100074.53;7308013;19;131824;-38
2022/05/10 01:10:58;;;;;;;19.52;2.40;;;;;;;23.34;54.07;100077.28;7308527;19;129237;-38
2022/05/10 01:13:33;;;;;;;22.77;2.70;;;;;;;23.34;53.68;100071.25;7306874;19;130480;-39
2022/05/10 01:16:05;;;;;;;27.75;3.35;;;;;;;23.37;53.50;100073.56;7304864;19;129261;-38
2022/05/10 01:18:31;;;;;;;58.88;6.00;;;;;;;23.32;53.85;100068.72;7305390;19;129581;-39
2022/05/10 01:21:02;;;;;;;8.15;1.15;;;;;;;23.35;53.96;100067.63;7304247;19;131520;-38
2022/05/10 01:24:11;;;;;;;46.28;5.22;;;;;;;23.37;54.46;100066.50;7306120;19;129742;-39
2022/05/10 01:27:03;;;;;;;44.38;5.13;;;;;;;23.36;54.42;100062.25;7304086;19;129340;-40
2022/05/10 01:29:44;;;;;;;54.28;5.88;;;;;;;23.26;53.80;100048.28;7303945;19;129656;-39
2022/05/10 01:35:05;;;;;;;27.77;3.22;;;;;;;23.33;54.18;100059.06;7304566;19;129321;-36
2022/05/10 01:37:35;;;;;;;26.35;3.03;;;;;;;23.34;54.12;100055.50;7308110;19;129537;-37
2022/05/10 01:40:24;;;;;;;23.80;2.97;;;;;;;23.34;53.92;100051.06;7309094;19;130064;-39
2022/05/10 01:42:58;;;;;;;13.48;1.60;;;;;;;23.36;54.07;100053.53;7311131;19;130281;-40
2022/05/10 01:45:40;;;;;;;43.72;5.32;;;;;;;23.33;54.05;100048.56;7303571;19;129380;-38
2022/05/10 01:48:09;;;;;;;25.85;3.10;;;;;;;23.30;54.21;100049.69;7308746;19;129560;-40
2022/05/10 01:50:55;;;;;;;14.07;2.13;;;;;;;23.35;53.71;100052.72;7307412;19;130170;-39
2022/05/10 01:53:29;;;;;;;40.65;4.55;;;;;;;23.31;54.10;100046.09;7307280;19;128943;-39
2022/05/10 01:56:13;;;;;;;27.45;2.80;;;;;;;23.34;54.26;100047.63;7304547;19;131370;-37
2022/05/10 01:58:40;;;;;;;40.67;5.07;;;;;;;23.21;53.94;100040.81;7304906;19;131170;-37
2022/05/10 02:01:10;;;;;;;35.25;4.43;;;;;;;23.32;54.20;100042.47;7303680;19;129688;-37
2022/05/10 02:03:43;;;;;;;22.00;2.75;;;;;;;23.31;54.24;100040.84;7304082;19;130530;-40
2022/05/10 02:06:31;;;;;;;32.30;3.78;;;;;;;23.30;53.00;100039.19;7304541;19;129729;-39
2022/05/10 02:09:28;;;;;;;17.58;2.10;;;;;;;23.31;53.83;100029.50;7306335;19;130586;-36
2022/05/10 02:12:26;;;;;;;28.13;3.15;;;;;;;23.30;54.28;100033.13;7306377;19;130389;-40
2022/05/10 02:14:58;;;;;;;44.70;4.70;;;;;;;23.30;53.88;100033.94;7302580;19;130821;-38
2022/05/10 02:17:37;;;;;;;22.58;2.78;;;;;;;23.32;53.89;100032.00;7304768;19;130302;-39
2022/05/10 02:20:13;;;;;;;33.80;4.25;;;;;;;23.26;53.95;100037.78;7303060;19;154757;-40
2022/05/10 02:22:46;;;;;;;24.77;3.10;;;;;;;23.29;54.49;100031.47;7309053;19;129053;-37
2022/05/10 02:25:17;;;;;;;30.92;3.75;;;;;;;23.25;54.01;100031.69;7308504;19;131370;-39
2022/05/10 02:27:50;;;;;;;26.10;3.05;;;;;;;23.26;54.32;100027.28;7310322;19;130491;-36
2022/05/10 02:30:20;;;;;;;22.63;2.72;;;;;;;23.27;54.54;100028.97;7314818;19;129093;-38
2022/05/10 02:33:08;;;;;;;18.25;2.05;;;;;;;23.27;54.44;100028.97;7312903;19;129932;-37
2022/05/10 02:35:53;;;;;;;40.38;5.18;;;;;;;23.28;53.74;100016.69;7309227;19;129045;-40
2022/05/10 02:38:22;;;;;;;40.13;4.95;;;;;;;23.25;53.80;100020.38;7310350;19;131214;-40
2022/05/10 02:40:51;;;;;;;34.90;3.55;;;;;;;23.25;53.57;100023.00;7312876;19;130064;-40
2022/05/10 02:43:22;;;;;;;29.67;3.45;;;;;;;23.24;53.88;100016.94;7308738;19;129167;-36
2022/05/10 02:45:47;;;;;;;38.08;5.15;;;;;;;23.19;53.09;100002.56;7291097;19;130276;-38
2022/05/10 02:48:31;;;;;;;23.67;2.45;;;;;;;23.31;53.96;100008.53;7306576;19;158617;-38
2022/05/10 02:50:57;;;;;;;22.80;2.65;;;;;;;23.26;53.74;100016.78;7310923;19;130692;-38
2022/05/10 02:53:22;;;;;;;37.13;3.70;;;;;;;23.29;54.06;100010.47;7310370;19;130295;-39
2022/05/10 02:55:56;;;;;;;32.67;3.90;;;;;;;23.29;53.92;100015.72;7307186;19;143624;-38
2022/05/10 02:58:37;;;;;;;16.58;1.88;;;;;;;23.27;53.93;100000.09;7312544;19;130558;-38
2022/05/10 03:01:10;;;;;;;37.55;4.18;;;;;;;23.26;54.16;100006.28;7311030;19;130071;-39
2022/05/10 03:03:36;;;;;;;24.80;2.88;;;;;;;23.27;54.49;100005.34;7311951;19;129432;-41
2022/05/10 03:06:02;;;;;;;31.43;3.27;;;;;;;23.25;53.53;100002.84;7310430;19;130385;-37
2022/05/10 03:08:27;;;;;;;25.00;2.80;;;;;;;23.30;54.21;99999.00;7310795;19;131872;-38
2022/05/10 03:10:52;;;;;;;15.55;1.98;;;;;;;23.26;53.42;100001.03;7313480;19;129202;-39
2022/05/10 03:13:19;;;;;;;32.08;3.92;;;;;;;23.27;54.29;99997.47;7311429;19;154421;-41
2022/05/10 03:15:44;;;;;;;22.92;2.60;;;;;;;23.27;54.15;100001.91;7307493;19;130446;-39
2022/05/10 03:18:09;;;;;;;32.67;3.50;;;;;;;23.26;53.24;100001.03;7310826;19;129599;-38
2022/05/10 03:20:35;;;;;;;21.73;2.60;;;;;;;23.26;54.46;99995.78;7307837;19;154735;-37
2022/05/10 03:23:00;;;;;;;20.77;2.22;;;;;;;23.25;53.68;99999.41;7311609;19;129605;-40
2022/05/10 03:25:30;;;;;;;42.33;5.53;;;;;;;23.29;54.23;99989.50;7304493;19;137881;-39
2022/05/10 03:27:56;;;;;;;22.88;2.30;;;;;;;23.25;54.35;99989.72;7310712;19;132589;-40
2022/05/10 03:30:21;;;;;;;42.30;4.88;;;;;;;23.25;53.88;99999.41;7309438;19;129946;-38
2022/05/10 03:32:46;;;;;;;30.50;3.50;;;;;;;23.25;54.51;100002.84;7307175;19;130395;-38
2022/05/10 03:35:15;;;;;;;35.40;3.95;;;;;;;23.24;53.57;100002.97;7303321;19;131976;-40
2022/05/10 03:37:41;;;;;;;14.02;2.03;;;;;;;23.16;54.28;99979.25;7306968;19;130945;-40
2022/05/10 03:40:07;;;;;;;21.13;2.58;;;;;;;23.25;54.07;99996.78;7308432;19;154681;-39
2022/05/10 03:42:33;;;;;;;19.70;2.47;;;;;;;23.24;54.31;100000.34;7307909;19;130382;-39
2022/05/10 03:44:58;;;;;;;33.05;4.68;;;;;;;23.23;54.20;99996.91;7305238;19;130706;-36
2022/05/10 03:47:26;;;;;;;54.30;6.22;;;;;;;23.22;54.14;99997.06;7304587;19;158618;-40
2022/05/10 03:49:53;;;;;;;26.30;2.92;;;;;;;23.21;53.75;99998.84;7308533;19;130763;-35
2022/05/10 03:52:19;;;;;;;28.08;3.30;;;;;;;23.24;54.34;99992.47;7305959;19;129964;-37
2022/05/10 03:54:44;;;;;;;17.40;2.05;;;;;;;23.24;53.83;99992.47;7303635;19;159200;-38
2022/05/10 03:57:10;;;;;;;20.83;2.22;;;;;;;23.23;54.68;99991.69;7310766;19;130357;-41
2022/05/10 03:59:41;;;;;;;47.10;4.82;;;;;;;23.22;54.00;99994.44;7311906;19;130248;-40
2022/05/10 04:02:06;;;;;;;20.02;2.25;;;;;;;23.18;54.37;99993.88;7311505;19;128813;-38
2022/05/10 04:04:31;;;;;;;28.50;2.97;;;;;;;23.23;54.16;99996.09;7310653;19;129554;-40
2022/05/10 04:06:57;;;;;;;22.73;2.55;;;;;;;23.25;53.91;99994.97;7309254;19;142692;-40
2022/05/10 04:09:22;;;;;;;10.30;1.17;;;;;;;23.24;54.05;99988.06;7310711;19;154815;-37
2022/05/10 04:11:47;;;;;;;39.45;3.70;;;;;;;23.25;53.62;99983.66;7306464;19;154887;-40
2022/05/10 04:14:13;;;;;;;59.57;5.10;;;;;;;23.22;53.66;99989.19;7307689;19;157430;-38
2022/05/10 04:16:38;;;;;;;22.60;2.50;;;;;;;23.23;53.71;99988.22;7163053;19;2814987;-40
2022/05/10 04:19:04;;;;;;;28.50;3.03;;;;;;;23.23;53.71;99990.84;7312422;19;154476;-41
2022/05/10 04:21:29;;;;;;;28.83;3.03;;;;;;;23.23;54.58;99982.97;7311098;19;154353;-40
2022/05/10 04:23:54;;;;;;;16.83;1.75;;;;;;;23.19;54.07;99985.03;7311546;19;141416;-39
2022/05/10 04:26:20;;;;;;;8.25;1.15;;;;;;;23.20;53.67;99986.69;7311349;19;159179;-40
2022/05/10 04:28:45;;;;;;;24.33;2.45;;;;;;;23.13;54.04;99974.28;7310876;19;131396;-38
2022/05/10 04:31:12;;;;;;;36.00;3.40;;;;;;;23.13;53.98;99974.28;7312546;19;128780;-38
2022/05/10 04:33:38;;;;;;;56.03;5.18;;;;;;;23.22;54.28;99978.69;7311195;19;129621;-38
2022/05/10 04:36:03;;;;;;;25.00;2.77;;;;;;;23.22;53.86;99983.94;7308484;19;129347;-36
2022/05/10 04:38:28;;;;;;;17.67;2.13;;;;;;;23.21;54.02;99982.28;7312245;19;128794;-39
2022/05/10 04:43:38;;;;;;;27.50;2.70;;;;;;;23.19;54.18;99978.97;7311549;19;129277;-40
2022/05/10 04:46:04;;;;;;;28.92;2.95;;;;;;;23.20;53.55;99991.94;7306796;19;130924;-40
2022/05/10 04:48:30;;;;;;;24.13;2.50;;;;;;;23.20;53.81;99980.63;7312403;19;129133;-39
2022/05/10 04:50:55;;;;;;;24.60;2.50;;;;;;;23.20;54.01;99985.88;7311267;19;129642;-41
2022/05/10 04:53:20;;;;;;;27.85;3.15;;;;;;;23.19;54.38;99985.03;7310824;19;159210;-40
2022/05/10 04:55:48;;;;;;;47.55;4.28;;;;;;;23.21;54.08;99984.91;7307055;19;130392;-39
2022/05/10 04:58:14;;;;;;;30.77;2.95;;;;;;;23.15;53.77;99988.91;7311921;19;129844;-38
2022/05/10 05:00:39;;;;;;;26.77;2.87;;;;;;;23.19;54.12;99986.81;7311861;19;129918;-39
2022/05/10 05:03:04;;;;;;;22.75;2.33;;;;;;;23.18;54.15;99978.16;7307927;19;158582;-40
2022/05/10 05:05:30;;;;;;;52.63;5.30;;;;;;;23.18;53.93;99988.66;7308071;19;140464;-40
2022/05/10 05:07:55;;;;;;;34.22;3.53;;;;;;;23.08;53.50;99973.88;7308732;19;151879;-40
2022/05/10 05:10:20;;;;;;;31.63;3.38;;;;;;;23.15;54.40;99982.84;7309831;19;153541;-39
2022/05/10 05:12:45;;;;;;;25.10;2.35;;;;;;;23.17;54.36;99996.66;7310794;19;159140;-40
2022/05/10 05:15:12;;;;;;;23.75;2.63;;;;;;;23.19;54.14;99992.06;7305791;19;158239;-38
2022/05/10 05:17:38;;;;;;;46.15;4.55;;;;;;;23.06;54.18;99975.81;7311146;19;130027;-41
2022/05/10 05:20:04;;;;;;;16.40;2.20;;;;;;;23.11;54.23;99979.66;7312043;19;129355;-39
2022/05/10 05:22:29;;;;;;;20.50;2.47;;;;;;;23.15;53.69;99988.09;7311498;19;130561;-40
2022/05/10 05:24:55;;;;;;;21.45;3.03;;;;;;;23.17;54.31;99996.66;7307368;19;129600;-36
2022/05/10 05:27:20;;;;;;;31.50;3.10;;;;;;;23.17;53.67;99994.03;7311451;19;129659;-35
2022/05/10 05:29:47;;;;;;;30.27;2.95;;;;;;;23.18;54.77;99993.06;7307565;19;130385;-38
2022/05/10 05:32:13;;;;;;;23.73;2.50;;;;;;;23.07;53.76;99980.91;7310387;19;130153;-40
2022/05/10 05:34:39;;;;;;;;;;;;;;;23.25;54.24;99994.16;7311165;19;130400;-36
2022/05/10 05:39:49;;;;;;;20.13;2.30;;;;;;;23.17;53.51;100004.53;7313021;19;129582;-41
2022/05/10 05:42:14;;;;;;;13.98;1.55;;;;;;;23.18;53.78;100000.91;7312056;19;130383;-41
2022/05/10 05:44:40;;;;;;;26.30;2.90;;;;;;;23.15;53.60;100012.50;7309081;19;129647;-36
2022/05/10 05:47:05;;;;;;;31.07;2.90;;;;;;;23.15;54.15;100003.84;7311691;19;129150;-38
2022/05/10 05:49:30;;;;;;;22.00;2.42;;;;;;;23.17;54.72;100007.16;7310901;19;148224;-40
2022/05/10 05:52:00;;;;;;;36.45;4.38;;;;;;;23.15;54.19;100004.63;7309432;19;154508;-37
2022/05/10 05:54:25;;;;;;;16.95;2.22;;;;;;;23.15;54.53;100014.31;7309828;19;129275;-40
2022/05/10 05:57:06;;;;;;;42.38;3.85;;;;;;;23.15;54.86;100003.84;7307268;19;129285;-40
2022/05/10 05:59:33;;;;;;;23.80;2.65;;;;;;;23.14;54.19;100000.38;7310645;19;129471;-38
2022/05/10 06:01:58;;;;;;;20.00;2.30;;;;;;;23.13;53.58;99996.09;7310997;19;129341;-41
2022/05/10 06:04:24;;;;;;;31.27;3.20;;;;;;;23.15;54.02;99988.09;7309208;19;157363;-37
2022/05/10 06:06:49;;;;;;;15.50;1.85;;;;;;;23.18;54.29;99995.69;7308398;19;155457;-39
2022/05/10 06:09:15;;;;;;;17.90;1.90;;;;;;;23.12;52.73;99993.63;7311919;19;128947;-39
2022/05/10 06:11:41;;;;;;;16.87;2.10;;;;;;;23.13;54.07;99987.41;7310704;19;129998;-40
2022/05/10 06:14:06;;;;;;;19.97;2.07;;;;;;;23.12;54.44;99991.00;7309946;19;130171;-39
2022/05/10 06:16:32;;;;;;;18.10;2.05;;;;;;;23.13;54.06;99982.16;7307575;19;129818;-40
2022/05/10 06:18:57;;;;;;;24.15;2.70;;;;;;;23.04;54.18;99968.06;7311286;19;128818;-39
2022/05/10 06:21:23;;;;;;;21.63;2.22;;;;;;;23.18;54.30;99977.31;7309204;19;158328;-38
2022/05/10 06:23:49;;;;;;;30.50;2.80;;;;;;;23.08;53.61;99966.84;7310142;19;129455;-38
2022/05/10 06:26:14;;;;;;;33.65;3.05;;;;;;;23.16;54.36;99968.75;7310556;19;129565;-40
2022/05/10 06:28:39;;;;;;;15.52;1.92;;;;;;;23.12;53.36;99972.63;7309733;19;152244;-40
2022/05/10 06:31:07;;;;;;;16.23;2.00;;;;;;;23.12;54.05;99970.03;7308457;19;158280;-38
2022/05/10 06:33:32;;;;;;;22.90;2.63;;;;;;;23.13;54.20;99963.78;7310561;19;130060;-40
2022/05/10 06:35:58;;;;;;;33.50;3.42;;;;;;;23.14;53.86;99970.69;7309223;19;129395;-39
2022/05/10 06:38:29;;;;;;;15.43;1.75;;;;;;;23.14;54.19;99965.44;7311030;19;128763;-38
2022/05/10 06:40:56;;;;;;;23.17;2.33;;;;;;;23.13;54.44;99962.00;7310890;19;129028;-40
2022/05/10 06:43:22;;;;;;;27.80;2.65;;;;;;;23.11;54.13;99956.06;7310589;19;129569;-37
2022/05/10 06:45:49;;;;;;;10.98;1.48;;;;;;;23.14;54.75;99960.19;7306577;19;130265;-40
2022/05/10 06:48:15;;;;;;;28.17;3.30;;;;;;;23.14;54.21;99958.41;7309557;19;129537;-40
2022/05/10 06:50:42;;;;;;;5.15;1.00;;;;;;;23.15;54.49;99959.25;7309036;19;129410;-39
2022/05/10 06:53:09;;;;;;;27.52;2.78;;;;;;;23.12;54.36;99956.91;7310255;19;130850;-39
2022/05/10 06:55:36;;;;;;;28.95;3.63;;;;;;;23.13;54.42;99958.53;7306824;19;129314;-39
2022/05/10 06:58:02;;;;;;;21.60;2.38;;;;;;;23.12;54.38;99954.28;7310792;19;129029;-38
2022/05/10 07:00:28;;;;;;;19.95;2.22;;;;;;;23.12;54.71;99952.47;7310365;19;129283;-35
2022/05/10 07:02:53;;;;;;;17.88;2.08;;;;;;;23.13;54.66;99954.13;7309439;19;132007;-40
2022/05/10 07:05:19;;;;;;;22.38;2.45;;;;;;;23.12;54.06;99947.22;7306751;19;155754;-35
2022/05/10 07:07:45;;;;;;;13.90;1.75;;;;;;;23.12;54.15;99949.84;7312511;19;130753;-41
2022/05/10 07:10:12;;;;;;;25.50;2.63;;;;;;;23.12;54.71;99947.22;7317460;19;129716;-40
2022/05/10 07:12:39;;;;;;;;;;;;;;;23.14;54.15;99933.97;7317440;19;130095;-40
2022/05/10 07:15:06;;;;;;;18.40;2.08;;;;;;;23.14;53.93;99944.44;7314018;19;129266;-40
2022/05/10 07:17:32;;;;;;;26.30;2.95;;;;;;;23.09;54.25;99947.50;7314165;19;129525;-40
2022/05/10 07:19:57;;;;;;;23.20;2.42;;;;;;;23.10;53.93;99943.94;7316301;19;131984;-40
2022/05/10 07:22:22;;;;;;;28.73;3.00;;;;;;;23.11;54.22;99939.50;7315442;19;129398;-36
2022/05/10 07:24:47;;;;;;;17.23;1.88;;;;;;;23.13;54.23;99942.81;7314168;19;130742;-40
2022/05/10 07:27:13;;;;;;;21.50;2.25;;;;;;;23.10;53.44;99948.34;7314166;19;153374;-37
2022/05/10 07:29:38;;;;;;;23.20;2.47;;;;;;;23.11;54.10;99949.97;7314430;19;158436;-37
2022/05/10 07:32:04;;;;;;;24.13;2.83;;;;;;;23.09;54.37;99944.88;7315785;19;130637;-37
2022/05/10 07:34:29;;;;;;;14.13;1.85;;;;;;;23.11;54.41;99939.50;7313651;19;128840;-38
2022/05/10 07:36:55;;;;;;;18.02;1.90;;;;;;;23.10;53.48;99943.94;7312502;19;153312;-39
2022/05/10 07:39:21;;;;;;;34.00;3.13;;;;;;;23.11;53.79;99944.75;7315967;19;130423;-38
2022/05/10 07:41:48;;;;;;;;;;;;;;;23.21;54.14;99940.31;7316130;19;129606;-39
2022/05/10 07:44:14;;;;;;;16.60;1.60;;;;;;;23.13;53.82;99942.81;7314016;19;129020;-39
2022/05/10 07:46:39;;;;;;;23.48;2.72;;;;;;;23.10;54.12;99940.47;7312601;19;154003;-39
2022/05/10 07:49:05;;;;;;;23.45;2.40;;;;;;;23.10;53.96;99937.84;7315197;19;129165;-37
2022/05/10 07:51:30;;;;;;;35.65;3.30;;;;;;;23.10;54.07;99937.84;7314615;19;135542;-37
2022/05/10 07:53:55;;;;;;;20.00;2.13;;;;;;;23.11;54.23;99944.75;7315373;19;130558;-37
2022/05/10 07:56:21;;;;;;;18.77;1.98;;;;;;;23.07;54.61;99932.91;7312910;19;128875;-37
2022/05/10 07:58:46;;;;;;;15.65;1.70;;;;;;;23.09;54.71;99941.44;7315520;19;130458;-36
2022/05/10 08:01:12;;;;;;;34.17;3.30;;;;;;;23.09;54.27;99938.81;7313741;19;159223;-39
2022/05/10 08:03:37;;;;;;;26.92;2.78;;;;;;;23.09;54.62;99937.00;7314403;19;133575;-41
2022/05/10 08:06:03;;;;;;;17.00;1.92;;;;;;;23.08;54.08;99938.00;7314241;19;130123;-41
2022/05/10 08:08:33;;;;;;;26.10;2.92;;;;;;;23.10;54.71;99943.09;7314845;19;130178;-39
2022/05/10 08:10:58;;;;;;;26.15;2.58;;;;;;;23.08;54.03;99937.16;7313935;19;129328;-40
2022/05/10 08:13:27;;;;;;;20.33;1.92;;;;;;;23.10;54.33;99937.84;7313868;19;129430;-41
2022/05/10 08:15:54;;;;;;;22.80;2.47;;;;;;;23.07;53.77;99930.28;7311278;19;128996;-40
2022/05/10 08:18:20;;;;;;;18.13;1.83;;;;;;;23.07;54.32;99922.41;7313446;19;132007;-40
2022/05/10 08:20:47;;;;;;;38.33;3.78;;;;;;;23.01;53.88;99917.69;7311009;19;129138;-37
2022/05/10 08:23:17;;;;;;;;;;;;;;;23.15;54.65;99925.94;7314307;19;128877;-37
2022/05/10 08:25:42;;;;;;;22.83;2.40;;;;;;;23.07;54.50;99917.16;7310775;19;129818;-36
2022/05/10 08:28:13;;;;;;;33.03;3.42;;;;;;;23.10;55.09;99927.38;7312636;19;151167;-37
2022/05/10 08:30:39;;;;;;;25.70;2.70;;;;;;;23.08;54.09;99921.44;7314638;19;130398;-37
2022/05/10 08:33:04;;;;;;;5.18;1.02;;;;;;;23.07;53.93;99917.16;7314950;19;129140;-37
2022/05/10 08:35:29;;;;;;;28.83;3.25;;;;;;;23.04;54.45;99913.00;7310541;19;131880;-37
2022/05/10 08:37:54;;;;;;;33.15;3.03;;;;;;;23.03;54.59;99921.00;7313500;19;159689;-37
2022/05/10 08:40:29;;;;;;;9.93;1.13;;;;;;;22.98;55.17;99902.25;7313077;19;158410;-37
2022/05/10 08:42:58;;;;;;;20.67;2.38;;;;;;;23.03;54.62;99918.41;7314287;19;129473;-37
2022/05/10 08:45:24;;;;;;;37.33;3.95;;;;;;;23.06;54.32;99910.25;7310527;19;129912;-37
2022/05/10 08:47:50;;;;;;;22.80;2.33;;;;;;;23.04;54.70;99909.53;7314049;19;130446;-37
2022/05/10 08:50:17;;;;;;;9.57;1.15;;;;;;;23.01;54.25;99910.66;7313105;19;129506;-37
2022/05/10 08:52:45;;;;;;;24.17;2.60;;;;;;;23.04;55.08;99913.00;7313738;19;129080;-37
2022/05/10 08:55:12;;;;;;;32.05;3.05;;;;;;;23.05;55.18;99909.44;7311473;19;129272;-37
2022/05/10 08:57:43;;;;;;;27.60;3.17;;;;;;;23.03;55.16;99908.75;7310108;19;131300;-37
2022/05/10 09:00:19;;;;;;;21.48;2.22;;;;;;;23.08;54.82;99900.44;7313184;19;159230;-37
2022/05/10 09:02:52;;;;;;;42.35;3.83;;;;;;;23.03;54.68;99894.78;7312941;19;131496;-37
2022/05/10 09:05:49;;;;;;;16.88;1.85;;;;;;;23.06;54.79;99899.75;7312216;19;129944;-36
2022/05/10 09:08:31;;;;;;;17.48;1.95;;;;;;;23.03;54.68;99894.78;7312557;19;130392;-37
2022/05/10 09:11:01;;;;;;;34.65;3.25;;;;;;;23.05;54.78;99892.88;7313463;19;131092;-37
2022/05/10 09:13:26;;;;;;;29.45;2.72;;;;;;;23.02;54.57;99888.72;7312837;19;129041;-37
2022/05/10 09:15:59;;;;;;;22.50;2.42;;;;;;;23.05;54.82;99892.88;7307392;19;154709;-35
2022/05/10 09:18:24;;;;;;;30.60;2.92;;;;;;;23.03;54.96;99890.38;7313297;19;130842;-37
2022/05/10 09:21:18;;;;;;;22.03;2.37;;;;;;;23.07;55.14;99893.56;7311516;19;158747;-37
2022/05/10 09:24:03;;;;;;;34.97;3.20;;;;;;;22.99;54.83;99883.75;7311789;19;129021;-37
2022/05/10 09:26:36;;;;;;;20.60;2.22;;;;;;;22.99;54.07;99872.47;7311060;19;128832;-37
2022/05/10 09:29:16;;;;;;;24.27;2.28;;;;;;;23.01;55.10;99881.81;7312227;19;130224;-37
2022/05/10 09:34:45;;;;;;;32.42;3.42;;;;;;;23.01;54.73;99876.59;7310741;19;129993;-37
2022/05/10 09:37:34;;;;;;;33.65;3.15;;;;;;;23.02;55.23;99869.56;7309354;19;129114;-37
2022/05/10 09:40:17;;;;;;;28.98;3.08;;;;;;;23.03;54.64;99871.19;7311594;19;129361;-37
2022/05/10 09:42:49;;;;;;;21.67;2.10;;;;;;;23.02;54.75;99866.94;7312276;19;131049;-37
2022/05/10 09:45:20;;;;;;;34.83;3.13;;;;;;;23.02;54.87;99867.72;7307584;19;128948;-37
2022/05/10 09:48:11;;;;;;;13.85;1.63;;;;;;;23.01;55.29;99865.25;7313087;19;128917;-37
2022/05/10 09:50:45;;;;;;;25.55;2.53;;;;;;;22.91;55.27;99848.72;7312046;19;130748;-37
2022/05/10 09:53:33;;;;;;;21.05;2.08;;;;;;;23.02;54.60;99861.69;7311722;19;129323;-37
2022/05/10 09:56:09;;;;;;;25.52;2.67;;;;;;;23.02;55.47;99861.69;7310548;19;129135;-37
2022/05/10 09:58:37;;;;;;;23.65;2.45;;;;;;;22.99;55.16;99857.53;7310344;19;129250;-37
2022/05/10 10:01:06;;;;;;;31.67;3.00;;;;;;;22.99;54.87;99861.97;7311208;19;129229;-37
2022/05/10 10:03:34;;;;;;;15.35;1.70;;;;;;;22.91;54.89;99833.00;7311727;19;130428;-37
2022/05/10 10:06:24;;;;;;;22.15;2.30;;;;;;;23.00;55.03;99842.63;7310441;19;129489;-37
2022/05/10 10:08:57;;;;;;;21.23;2.17;;;;;;;22.99;54.72;99854.09;7312811;19;132075;-37
2022/05/10 10:11:23;;;;;;;14.27;1.45;;;;;;;22.96;54.49;99849.97;7310935;19;129134;-37
2022/05/10 10:13:52;;;;;;;18.45;1.95;;;;;;;22.99;54.60;99848.88;7310922;19;131260;-37
2022/05/10 10:16:24;;;;;;;27.73;2.40;;;;;;;22.99;54.89;99846.25;7309426;19;130284;-37
2022/05/10 10:18:53;;;;;;;21.73;2.13;;;;;;;22.99;54.41;99843.63;7311894;19;129330;-37
2022/05/10 10:21:44;;;;;;;16.38;1.70;;;;;;;23.02;55.15;99840.72;7312310;19;130214;-37
2022/05/10 10:24:17;;;;;;;27.20;2.92;;;;;;;22.98;55.31;99837.53;7309804;19;129655;-37
2022/05/10 10:26:49;;;;;;;20.05;2.05;;;;;;;22.96;55.29;99836.00;7309982;19;128903;-37
2022/05/10 10:29:21;;;;;;;31.70;2.95;;;;;;;22.97;55.39;99829.81;7311865;19;129311;-37
2022/05/10 10:31:54;;;;;;;21.58;2.13;;;;;;;22.97;55.08;99822.75;7310148;19;130537;-37
2022/05/10 10:34:31;;;;;;;27.88;3.05;;;;;;;22.98;54.85;99815.72;7309198;19;132332;-37
2022/05/10 10:37:17;;;;;;;17.17;1.77;;;;;;;22.98;55.08;99805.25;7309762;19;129371;-37
2022/05/10 10:40:27;;;;;;;22.27;2.25;;;;;;;22.99;54.80;99802.47;7311199;19;129155;-37
2022/05/10 10:43:23;;;;;;;16.80;1.65;;;;;;;22.99;55.54;99810.34;7312921;19;130390;-37
2022/05/10 10:46:14;;;;;;;12.45;1.48;;;;;;;22.98;55.51;99803.44;7312577;19;131024;-37
2022/05/10 10:48:47;;;;;;;31.77;3.13;;;;;;;22.99;54.72;99799.03;7316103;19;129204;-41
2022/05/10 10:51:15;;;;;;;20.50;1.98;;;;;;;22.99;54.50;99794.59;7317110;19;129776;-38
2022/05/10 10:53:41;;;;;;;28.90;2.90;;;;;;;22.86;54.55;99785.41;7317035;19;130251;-40
2022/05/10 10:56:38;;;;;;;49.30;4.38;;;;;;;22.97;54.81;99796.53;7312432;19;129548;-36
2022/05/10 10:59:39;;;;;;;22.83;2.17;;;;;;;22.99;54.68;99788.56;7318249;19;129138;-38
2022/05/10 11:02:42;;;;;;;13.88;1.45;;;;;;;22.97;54.65;99790.50;7316524;19;129129;-40
2022/05/10 11:05:41;;;;;;;16.33;1.77;;;;;;;22.97;55.27;99785.25;7314833;19;130230;-38
2022/05/10 11:08:29;;;;;;;28.70;2.75;;;;;;;22.98;55.02;99776.41;7315120;19;130420;-39
2022/05/10 11:11:41;;;;;;;41.13;3.63;;;;;;;22.95;55.10;99772.28;7316359;19;129707;-39
2022/05/10 11:14:16;;;;;;;18.13;1.98;;;;;;;22.92;55.23;99780.41;7312331;19;130102;-37
2022/05/10 11:16:47;;;;;;;20.38;1.80;;;;;;;22.94;54.67;99777.66;7312845;19;129970;-38
2022/05/10 11:19:34;;;;;;;35.15;3.30;;;;;;;22.94;54.76;99781.09;7315873;19;129203;-36
2022/05/10 11:22:38;;;;;;;17.52;1.88;;;;;;;22.99;54.66;99783.31;7316121;19;129246;-40
2022/05/10 11:25:10;;;;;;;25.92;2.53;;;;;;;22.94;54.15;99775.03;7314249;19;128909;-39
2022/05/10 11:27:51;;;;;;;26.92;2.80;;;;;;;22.97;55.42;99769.50;7315376;19;130140;-39
2022/05/10 11:30:27;;;;;;;29.73;2.72;;;;;;;22.84;54.86;99756.72;7314827;19;159890;-38
2022/05/10 11:33:09;;;;;;;10.10;1.37;;;;;;;22.94;54.80;99762.75;7316370;19;129600;-39
2022/05/10 11:35:34;;;;;;;44.90;4.40;;;;;;;22.86;54.10;99740.84;7312588;19;129255;-38
2022/05/10 11:38:28;;;;;;;15.27;1.87;;;;;;;22.92;55.23;99750.75;7311488;19;159475;-38
2022/05/10 11:41:31;;;;;;;18.42;1.92;;;;;;;22.94;54.94;99759.31;7314544;19;129704;-40
2022/05/10 11:44:32;;;;;;;35.78;3.15;;;;;;;22.94;55.26;99754.06;7315210;19;129345;-40
2022/05/10 11:47:29;;;;;;;38.25;3.42;;;;;;;22.96;55.16;99752.09;7315332;19;130051;-38